Impacts TAF Board INFO
FOR SITUATIONAL AWARENESS. NOT TO BE USED FOR FLIGHT PLANNING PURPOSES.
IDs:

KMSP - Minneapolis-St Paul, MN, US

Issued at 0845 UTC 20 Jan 2018
Updated at 0910 UTC 20 Jan 2018
Potential Impact None Slight Moderate High
Time0853Z 20/10Z 20/11Z 20/12Z 20/13Z 20/14Z 20/15Z 20/16Z 20/17Z 20/18Z 20/19Z 20/20Z 20/21Z 20/22Z>>
Type OBS PRVL
  [TEMP]  
PRVL
  [TEMP]  
PRVL
  [TEMP]  
PRVL
  [TEMP]  
PRVL PRVL PRVL PRVL PRVL PRVL PRVL PRVL PRVL
VIS 10 >6
  [5]  
>6
  [5]  
>6
  [5]  
>6
  [5]  
>6 >6 >6 >6 >6 >6 >6 >6 >6
CIG 250 250
  [250]  
250
  [250]  
250
  [250]  
250
  [250]  
250 250 100 100 100 100 100 100 100
Cover BKN BKN
  [BKN]  
BKN
  [BKN]  
BKN
  [BKN]  
BKN
  [BKN]  
BKN BKN OVC OVC OVC OVC OVC OVC OVC
FltCat VFR VFR
  [MVFR]  
VFR
  [MVFR]  
VFR
  [MVFR]  
VFR
  [MVFR]  
VFR VFR VFR VFR VFR VFR VFR VFR VFR
WX -- --
  [BR]  
--
  [BR]  
--
  [BR]  
--
  [BR]  
-- -- -- -- -- -- -- -- --
WDir 230 VRB
[VRB]
VRB
[VRB]
VRB
[VRB]
VRB
[VRB]
VRB VRB 260 260 260 260 260 260 260
WSpd 5 3
  [3]  
3
  [3]  
3
  [3]  
3
  [3]  
3 3 3 3 3 3 3 3 3
WGst -- --
  [--]  
--
  [--]  
--
  [--]  
--
  [--]  
-- -- -- -- -- -- -- -- --

Raw TAF
KMSP 200845Z 2009/2112 VRB03KT P6SM BKN250
  TEMPO 2010/2014 5SM BR
  FM201600 26003KT P6SM OVC100
  FM210400 00000KT P6SM BKN020


Raw METAR
KMSP 200853Z 23005KT 10SM BKN250 M01/M02 A2978 RMK AO2 SLP091 T10111017 51021
KMSP 200753Z 19003KT 10SM BKN250 M01/M02 A2976 RMK AO2 SLP084 T10061022
KMSP 200653Z 00000KT 10SM BKN250 M01/M02 A2974 RMK AO2 SLP079 T10061022

METAR Board
Radar Display
Forecast Discussion

FOR SITUATIONAL AWARENESS. NOT TO BE USED FOR FLIGHT PLANNING PURPOSES.